Etusivu
METAR-TAF:

METAR-TAF

Lentoasemat :

Ålesund, Norja

Leveyspiiri: 62-34N, Pituuspiiri: 006-07E, korkeus merenpinnasta: 2 m

Tämänhetkinen sää

Tämä raportti tehtiin 27 minuuttia sitten, kello 13.20 UTC
Tuuli 17 kn etelästä
Lämpötila 18°C
Kosteus 42%
Ilmanpaine 1017 hPa
Näkyvyys 10 km tai enemmän
Hajanaisia pilviä 6600 ft:n korkeudessa

METAR: ENAL 201320Z 19017KT 9999 SCT066 18/05 Q1017

Aika: 15:47 (13:47 UTC)

Sääennuste

Tämä raportti tehtiin 2 tuntia ja 47 minuuttia sitten, kello 11.00 UTC
Ennuste voimassa 20. päivästä klo 12 UTC - 20. päivään klo 21 UTC
Tuuli 20 kn etelästä/lounaasta
Näkyvyys 10 km tai enemmän
ei pilviä alle 1500 m:ssä eikä cumulonimbus-pilviä
Ajoittain
20. päivästä klo 12 UTC - 20. päivään klo 18 UTC
Tuuli 25 kn etelästä/lounaasta puuskistuen 35 kn:hen

TAF: ENAL 201100Z 2012/2021 21020KT CAVOK TEMPO 2012/2018 21025G35KT

Säähavainnot ja -ennusteet yli 4000 lentoasemalta (METAR- ja TAF-raportit).

Käytössä olevat sääasemat on merkitty karttaan keltaisilla ja punaisilla pisteillä.

Aseta hiiri pisteen päälle nähdäksesi sääaseman nimen.

Klikkaa sitten nähdäksesi säähavainnot ja -ennusteet.

Kartan vaihtaminen: klikkaa mustalla rastilla varustettuja vihreitä pisteitä, niin voit zoomata sisään; viivalla varustettua vihreää pistettä, niin voit zoomata ulos tai vihreitä nuolia, niin pääset viereisille kartoille.


METAR-TAF: